sensor_id;sensor_type;location;lat;lon;timestamp;pressure;altitude;pressure_sealevel;temperature;humidity
55801;BME280;41730;51.960;20.158;2022-08-18T00:00:12;99835.49;;;23.80;67.22
55801;BME280;41730;51.960;20.158;2022-08-18T00:02:49;99839.32;;;23.88;67.02
55801;BME280;41730;51.960;20.158;2022-08-18T00:05:30;99842.23;;;23.79;67.20
55801;BME280;41730;51.960;20.158;2022-08-18T00:08:05;99844.67;;;23.78;67.32
55801;BME280;41730;51.960;20.158;2022-08-18T00:10:37;99847.02;;;23.84;66.98
55801;BME280;41730;51.960;20.158;2022-08-18T00:13:10;99851.48;;;23.73;67.26
55801;BME280;41730;51.960;20.158;2022-08-18T00:15:42;99847.40;;;23.77;67.35
55801;BME280;41730;51.960;20.158;2022-08-18T00:18:18;99849.55;;;23.85;67.06
55801;BME280;41730;51.960;20.158;2022-08-18T00:20:49;99853.52;;;23.81;67.19
55801;BME280;41730;51.960;20.158;2022-08-18T00:23:21;99857.58;;;23.88;67.15
55801;BME280;41730;51.960;20.158;2022-08-18T00:25:52;99867.08;;;23.87;67.15
55801;BME280;41730;51.960;20.158;2022-08-18T00:28:27;99876.00;;;23.77;67.49
55801;BME280;41730;51.960;20.158;2022-08-18T00:30:59;99872.52;;;23.86;67.14
55801;BME280;41730;51.960;20.158;2022-08-18T00:33:32;99875.23;;;23.73;67.18
55801;BME280;41730;51.960;20.158;2022-08-18T00:36:03;99873.41;;;23.53;67.68
55801;BME280;41730;51.960;20.158;2022-08-18T00:38:35;99878.41;;;23.53;67.90
55801;BME280;41730;51.960;20.158;2022-08-18T00:41:07;99882.67;;;23.52;68.21
55801;BME280;41730;51.960;20.158;2022-08-18T00:43:42;99883.33;;;23.53;68.19
55801;BME280;41730;51.960;20.158;2022-08-18T00:46:17;99888.24;;;23.53;68.30
55801;BME280;41730;51.960;20.158;2022-08-18T00:48:49;99889.31;;;23.58;68.08
55801;BME280;41730;51.960;20.158;2022-08-18T00:51:25;99890.77;;;23.52;67.91
55801;BME280;41730;51.960;20.158;2022-08-18T00:54:02;99888.46;;;23.41;68.26
55801;BME280;41730;51.960;20.158;2022-08-18T00:56:38;99887.55;;;23.52;67.91
55801;BME280;41730;51.960;20.158;2022-08-18T00:59:19;99890.70;;;23.46;68.13
55801;BME280;41730;51.960;20.158;2022-08-18T01:01:52;99893.95;;;23.42;68.35
55801;BME280;41730;51.960;20.158;2022-08-18T01:04:28;99896.13;;;23.32;68.59
55801;BME280;41730;51.960;20.158;2022-08-18T01:07:06;99896.65;;;23.33;68.53
55801;BME280;41730;51.960;20.158;2022-08-18T01:09:41;99895.27;;;23.43;68.03
55801;BME280;41730;51.960;20.158;2022-08-18T01:12:13;99892.73;;;23.30;68.33
55801;BME280;41730;51.960;20.158;2022-08-18T01:15:05;99887.30;;;23.20;68.49
55801;BME280;41730;51.960;20.158;2022-08-18T01:17:57;99885.90;;;23.26;68.16
55801;BME280;41730;51.960;20.158;2022-08-18T01:20:51;99886.94;;;23.25;68.15
55801;BME280;41730;51.960;20.158;2022-08-18T01:23:44;99894.30;;;23.27;68.01
55801;BME280;41730;51.960;20.158;2022-08-18T01:26:17;99899.70;;;23.30;67.91
55801;BME280;41730;51.960;20.158;2022-08-18T01:28:50;99901.84;;;23.30;67.76
55801;BME280;41730;51.960;20.158;2022-08-18T01:31:34;99901.86;;;23.10;68.10
55801;BME280;41730;51.960;20.158;2022-08-18T01:34:08;99903.48;;;22.99;68.47
55801;BME280;41730;51.960;20.158;2022-08-18T01:36:41;99904.39;;;22.95;68.57
55801;BME280;41730;51.960;20.158;2022-08-18T01:39:13;99903.11;;;22.96;68.54
55801;BME280;41730;51.960;20.158;2022-08-18T01:42:05;99899.03;;;22.95;68.46
55801;BME280;41730;51.960;20.158;2022-08-18T01:44:37;99893.18;;;22.92;68.49
55801;BME280;41730;51.960;20.158;2022-08-18T01:47:09;99890.45;;;22.86;68.77
55801;BME280;41730;51.960;20.158;2022-08-18T01:49:42;99885.63;;;22.81;69.20
55801;BME280;41730;51.960;20.158;2022-08-18T01:52:16;99894.05;;;22.70;69.58
55801;BME280;41730;51.960;20.158;2022-08-18T01:54:50;99887.14;;;22.61;70.00
55801;BME280;41730;51.960;20.158;2022-08-18T01:57:22;99890.75;;;22.61;69.96
55801;BME280;41730;51.960;20.158;2022-08-18T01:59:54;99888.83;;;22.51;70.21
55801;BME280;41730;51.960;20.158;2022-08-18T02:02:29;99896.05;;;22.45;70.41
55801;BME280;41730;51.960;20.158;2022-08-18T02:05:06;99892.05;;;22.67;69.94
55801;BME280;41730;51.960;20.158;2022-08-18T02:07:40;99891.63;;;22.76;69.43
55801;BME280;41730;51.960;20.158;2022-08-18T02:10:13;99897.36;;;22.66;69.72
55801;BME280;41730;51.960;20.158;2022-08-18T02:12:46;99898.61;;;22.57;69.90
55801;BME280;41730;51.960;20.158;2022-08-18T02:15:18;99899.61;;;22.62;69.98
55801;BME280;41730;51.960;20.158;2022-08-18T02:17:50;99898.65;;;22.73;69.53
55801;BME280;41730;51.960;20.158;2022-08-18T02:20:22;99899.20;;;22.68;69.68
55801;BME280;41730;51.960;20.158;2022-08-18T02:22:54;99900.30;;;22.66;69.57
55801;BME280;41730;51.960;20.158;2022-08-18T02:25:27;99897.64;;;22.61;69.54
55801;BME280;41730;51.960;20.158;2022-08-18T02:27:58;99895.85;;;22.45;69.74
55801;BME280;41730;51.960;20.158;2022-08-18T02:30:30;99887.66;;;22.31;70.17
55801;BME280;41730;51.960;20.158;2022-08-18T02:33:03;99887.09;;;22.27;70.14
55801;BME280;41730;51.960;20.158;2022-08-18T02:35:35;99884.80;;;22.10;70.68
55801;BME280;41730;51.960;20.158;2022-08-18T02:38:07;99887.65;;;21.96;71.02
55801;BME280;41730;51.960;20.158;2022-08-18T02:40:44;99885.81;;;21.91;71.31
55801;BME280;41730;51.960;20.158;2022-08-18T02:43:15;99882.66;;;21.96;71.24
55801;BME280;41730;51.960;20.158;2022-08-18T02:45:46;99883.30;;;22.02;70.96
55801;BME280;41730;51.960;20.158;2022-08-18T02:48:18;99885.98;;;22.02;71.08
55801;BME280;41730;51.960;20.158;2022-08-18T02:51:00;99888.77;;;22.11;70.60
55801;BME280;41730;51.960;20.158;2022-08-18T02:53:32;99888.48;;;21.94;70.98
55801;BME280;41730;51.960;20.158;2022-08-18T02:56:10;99891.20;;;21.83;71.30
55801;BME280;41730;51.960;20.158;2022-08-18T02:59:12;99893.91;;;21.89;70.76
55801;BME280;41730;51.960;20.158;2022-08-18T03:01:45;99902.34;;;21.70;71.19
55801;BME280;41730;51.960;20.158;2022-08-18T03:04:20;99898.42;;;21.72;71.12
55801;BME280;41730;51.960;20.158;2022-08-18T03:07:00;99897.11;;;21.75;71.06
55801;BME280;41730;51.960;20.158;2022-08-18T03:09:33;99901.55;;;21.76;70.74
55801;BME280;41730;51.960;20.158;2022-08-18T03:12:06;99902.84;;;21.68;71.18
55801;BME280;41730;51.960;20.158;2022-08-18T03:14:38;99906.17;;;21.67;71.23
55801;BME280;41730;51.960;20.158;2022-08-18T03:17:10;99902.63;;;21.56;71.56
55801;BME280;41730;51.960;20.158;2022-08-18T03:19:42;99900.24;;;21.53;71.66
55801;BME280;41730;51.960;20.158;2022-08-18T03:22:17;99903.42;;;21.65;71.41
55801;BME280;41730;51.960;20.158;2022-08-18T03:24:58;99900.20;;;21.57;71.48
55801;BME280;41730;51.960;20.158;2022-08-18T03:27:30;99898.27;;;21.54;71.50
55801;BME280;41730;51.960;20.158;2022-08-18T03:30:04;99893.91;;;21.49;71.86
55801;BME280;41730;51.960;20.158;2022-08-18T03:32:41;99897.04;;;21.57;71.61
55801;BME280;41730;51.960;20.158;2022-08-18T03:35:18;99896.66;;;21.66;71.16
55801;BME280;41730;51.960;20.158;2022-08-18T03:37:49;99899.14;;;21.70;71.10
55801;BME280;41730;51.960;20.158;2022-08-18T03:40:21;99900.77;;;21.69;71.31
55801;BME280;41730;51.960;20.158;2022-08-18T03:42:53;99906.25;;;21.75;71.22
55801;BME280;41730;51.960;20.158;2022-08-18T03:45:25;99908.52;;;21.73;71.67
55801;BME280;41730;51.960;20.158;2022-08-18T03:47:57;99907.94;;;21.75;71.70
55801;BME280;41730;51.960;20.158;2022-08-18T03:50:31;99910.02;;;21.76;71.92
55801;BME280;41730;51.960;20.158;2022-08-18T03:53:02;99911.40;;;21.98;71.39
55801;BME280;41730;51.960;20.158;2022-08-18T03:55:34;99912.73;;;22.18;70.72
55801;BME280;41730;51.960;20.158;2022-08-18T03:58:05;99919.09;;;22.38;70.39
55801;BME280;41730;51.960;20.158;2022-08-18T04:00:38;99918.10;;;22.58;69.89
55801;BME280;41730;51.960;20.158;2022-08-18T04:03:10;99912.91;;;22.57;69.99
55801;BME280;41730;51.960;20.158;2022-08-18T04:05:41;99913.42;;;22.71;69.77
55801;BME280;41730;51.960;20.158;2022-08-18T04:08:13;99908.54;;;23.09;69.05
55801;BME280;41730;51.960;20.158;2022-08-18T04:10:45;99906.11;;;23.44;68.13
55801;BME280;41730;51.960;20.158;2022-08-18T04:13:16;99910.05;;;23.62;67.96
55801;BME280;41730;51.960;20.158;2022-08-18T04:15:48;99910.95;;;23.89;67.83
55801;BME280;41730;51.960;20.158;2022-08-18T04:18:19;99910.50;;;24.44;66.85
55801;BME280;41730;51.960;20.158;2022-08-18T04:20:50;99913.34;;;24.94;65.80
55801;BME280;41730;51.960;20.158;2022-08-18T04:23:28;99914.83;;;25.21;65.26
55801;BME280;41730;51.960;20.158;2022-08-18T04:26:13;99917.05;;;25.61;64.45
55801;BME280;41730;51.960;20.158;2022-08-18T04:28:48;99913.02;;;26.06;63.37
55801;BME280;41730;51.960;20.158;2022-08-18T04:31:19;99916.70;;;26.43;62.53
55801;BME280;41730;51.960;20.158;2022-08-18T04:33:51;99919.98;;;26.69;62.11
55801;BME280;41730;51.960;20.158;2022-08-18T04:36:23;99924.15;;;27.02;61.94
55801;BME280;41730;51.960;20.158;2022-08-18T04:38:55;99922.77;;;27.27;61.03
55801;BME280;41730;51.960;20.158;2022-08-18T04:41:27;99922.04;;;27.37;60.54
55801;BME280;41730;51.960;20.158;2022-08-18T04:44:02;99924.00;;;27.31;60.27
55801;BME280;41730;51.960;20.158;2022-08-18T04:46:37;99924.74;;;27.28;60.26
55801;BME280;41730;51.960;20.158;2022-08-18T04:49:10;99920.05;;;27.31;60.09
55801;BME280;41730;51.960;20.158;2022-08-18T04:51:44;99917.42;;;27.29;60.19
55801;BME280;41730;51.960;20.158;2022-08-18T04:54:55;99925.20;;;27.53;59.85
55801;BME280;41730;51.960;20.158;2022-08-18T04:57:27;99935.08;;;27.72;59.56
55801;BME280;41730;51.960;20.158;2022-08-18T05:00:03;99935.41;;;27.90;58.95
55801;BME280;41730;51.960;20.158;2022-08-18T05:02:36;99939.34;;;27.96;58.94
55801;BME280;41730;51.960;20.158;2022-08-18T05:05:08;99932.70;;;28.11;58.76
55801;BME280;41730;51.960;20.158;2022-08-18T05:07:45;99933.66;;;28.38;58.41
55801;BME280;41730;51.960;20.158;2022-08-18T05:10:17;99925.40;;;28.71;57.33
55801;BME280;41730;51.960;20.158;2022-08-18T05:12:49;99933.73;;;28.94;56.81
55801;BME280;41730;51.960;20.158;2022-08-18T05:15:20;99935.15;;;29.01;56.61
55801;BME280;41730;51.960;20.158;2022-08-18T05:17:52;99936.06;;;29.01;56.92
55801;BME280;41730;51.960;20.158;2022-08-18T05:20:24;99934.17;;;29.15;56.42
55801;BME280;41730;51.960;20.158;2022-08-18T05:22:55;99934.65;;;29.32;55.85
55801;BME280;41730;51.960;20.158;2022-08-18T05:25:26;99941.73;;;29.37;55.51
55801;BME280;41730;51.960;20.158;2022-08-18T05:27:58;99942.39;;;29.49;55.38
55801;BME280;41730;51.960;20.158;2022-08-18T05:30:30;99945.95;;;29.54;55.12
55801;BME280;41730;51.960;20.158;2022-08-18T05:33:01;99941.53;;;29.70;54.50
55801;BME280;41730;51.960;20.158;2022-08-18T05:35:40;99941.10;;;29.64;54.69
55801;BME280;41730;51.960;20.158;2022-08-18T05:38:34;99941.59;;;29.78;54.46
55801;BME280;41730;51.960;20.158;2022-08-18T05:41:11;99943.42;;;29.82;54.18
55801;BME280;41730;51.960;20.158;2022-08-18T05:43:45;99944.80;;;29.79;54.16
55801;BME280;41730;51.960;20.158;2022-08-18T05:46:23;99942.71;;;29.90;53.90
55801;BME280;41730;51.960;20.158;2022-08-18T05:48:56;99942.66;;;30.10;53.12
55801;BME280;41730;51.960;20.158;2022-08-18T05:51:30;99941.71;;;30.03;52.77
55801;BME280;41730;51.960;20.158;2022-08-18T05:54:05;99943.45;;;30.04;52.80
55801;BME280;41730;51.960;20.158;2022-08-18T05:56:56;99941.05;;;30.13;52.58
55801;BME280;41730;51.960;20.158;2022-08-18T05:59:31;99941.73;;;30.18;52.08
55801;BME280;41730;51.960;20.158;2022-08-18T06:02:07;99944.79;;;30.12;52.20
55801;BME280;41730;51.960;20.158;2022-08-18T06:04:47;99938.96;;;30.15;52.21
55801;BME280;41730;51.960;20.158;2022-08-18T06:07:25;99940.36;;;30.24;52.23
55801;BME280;41730;51.960;20.158;2022-08-18T06:10:03;99941.13;;;30.44;51.79
55801;BME280;41730;51.960;20.158;2022-08-18T06:12:40;99943.56;;;30.57;51.62
55801;BME280;41730;51.960;20.158;2022-08-18T06:15:17;99938.39;;;30.65;51.40
55801;BME280;41730;51.960;20.158;2022-08-18T06:18:15;99936.75;;;30.65;51.33
55801;BME280;41730;51.960;20.158;2022-08-18T06:21:08;99934.95;;;30.76;51.14
55801;BME280;41730;51.960;20.158;2022-08-18T06:23:44;99944.70;;;30.71;50.93
55801;BME280;41730;51.960;20.158;2022-08-18T06:26:20;99940.34;;;30.80;50.62
55801;BME280;41730;51.960;20.158;2022-08-18T06:29:04;99936.58;;;30.85;50.34
55801;BME280;41730;51.960;20.158;2022-08-18T06:31:44;99945.99;;;30.69;50.61
55801;BME280;41730;51.960;20.158;2022-08-18T06:34:23;99946.59;;;30.67;50.86
55801;BME280;41730;51.960;20.158;2022-08-18T06:37:02;99941.92;;;30.82;50.62
55801;BME280;41730;51.960;20.158;2022-08-18T06:39:48;99940.02;;;30.93;50.23
55801;BME280;41730;51.960;20.158;2022-08-18T06:42:23;99934.05;;;30.97;49.86
55801;BME280;41730;51.960;20.158;2022-08-18T06:45:04;99934.36;;;30.95;49.91
55801;BME280;41730;51.960;20.158;2022-08-18T06:47:40;99937.73;;;30.81;49.74
55801;BME280;41730;51.960;20.158;2022-08-18T06:50:20;99930.13;;;30.80;49.49
55801;BME280;41730;51.960;20.158;2022-08-18T06:52:59;99933.18;;;30.83;49.46
55801;BME280;41730;51.960;20.158;2022-08-18T06:55:38;99934.30;;;30.89;49.44
55801;BME280;41730;51.960;20.158;2022-08-18T06:58:23;99937.16;;;31.05;49.20
55801;BME280;41730;51.960;20.158;2022-08-18T07:00:59;99943.95;;;31.06;49.10
55801;BME280;41730;51.960;20.158;2022-08-18T07:03:45;99942.16;;;31.13;49.10
55801;BME280;41730;51.960;20.158;2022-08-18T07:06:32;99947.33;;;31.22;49.02
55801;BME280;41730;51.960;20.158;2022-08-18T07:09:24;99946.71;;;31.47;48.74
55801;BME280;41730;51.960;20.158;2022-08-18T07:12:06;99948.12;;;31.75;48.32
55801;BME280;41730;51.960;20.158;2022-08-18T07:14:47;99951.80;;;31.79;48.08
55801;BME280;41730;51.960;20.158;2022-08-18T07:17:23;99955.73;;;31.74;48.03
55801;BME280;41730;51.960;20.158;2022-08-18T07:20:24;99953.86;;;31.85;47.32
55801;BME280;41730;51.960;20.158;2022-08-18T07:23:00;99953.89;;;31.74;48.09
55801;BME280;41730;51.960;20.158;2022-08-18T07:25:43;99954.26;;;31.93;47.49
55801;BME280;41730;51.960;20.158;2022-08-18T07:28:28;99963.55;;;31.81;47.32
55801;BME280;41730;51.960;20.158;2022-08-18T07:31:26;99965.10;;;31.61;47.55
55801;BME280;41730;51.960;20.158;2022-08-18T07:34:10;99967.54;;;31.44;47.63
55801;BME280;41730;51.960;20.158;2022-08-18T07:36:48;99972.05;;;31.45;47.34
55801;BME280;41730;51.960;20.158;2022-08-18T07:39:25;99972.92;;;31.54;47.34
55801;BME280;41730;51.960;20.158;2022-08-18T07:42:04;99966.17;;;31.52;46.81
55801;BME280;41730;51.960;20.158;2022-08-18T07:44:44;99966.30;;;31.43;46.96
55801;BME280;41730;51.960;20.158;2022-08-18T07:47:21;99965.96;;;31.47;46.69
55801;BME280;41730;51.960;20.158;2022-08-18T07:49:54;99965.90;;;31.42;46.91
55801;BME280;41730;51.960;20.158;2022-08-18T07:52:54;99961.63;;;31.52;46.56
55801;BME280;41730;51.960;20.158;2022-08-18T07:55:35;99958.88;;;31.40;46.66
55801;BME280;41730;51.960;20.158;2022-08-18T07:58:16;99956.63;;;31.27;46.62
55801;BME280;41730;51.960;20.158;2022-08-18T08:00:51;99952.84;;;31.05;46.78
55801;BME280;41730;51.960;20.158;2022-08-18T08:03:38;99953.61;;;31.00;46.99
55801;BME280;41730;51.960;20.158;2022-08-18T08:06:18;99952.67;;;31.01;47.04
55801;BME280;41730;51.960;20.158;2022-08-18T08:09:02;99954.59;;;31.08;47.26
55801;BME280;41730;51.960;20.158;2022-08-18T08:11:46;99957.48;;;31.15;46.62
55801;BME280;41730;51.960;20.158;2022-08-18T08:14:40;99960.66;;;31.33;46.57
55801;BME280;41730;51.960;20.158;2022-08-18T08:17:22;99963.63;;;31.46;46.18
55801;BME280;41730;51.960;20.158;2022-08-18T08:20:03;99969.18;;;31.35;46.42
55801;BME280;41730;51.960;20.158;2022-08-18T08:22:47;99969.75;;;31.36;46.73
55801;BME280;41730;51.960;20.158;2022-08-18T08:25:25;99966.93;;;31.53;46.41
55801;BME280;41730;51.960;20.158;2022-08-18T08:28:22;99970.41;;;31.73;45.85
55801;BME280;41730;51.960;20.158;2022-08-18T08:31:03;99969.15;;;31.78;45.99
55801;BME280;41730;51.960;20.158;2022-08-18T08:34:04;99975.19;;;31.87;45.76
55801;BME280;41730;51.960;20.158;2022-08-18T08:36:41;99967.86;;;31.73;45.56
55801;BME280;41730;51.960;20.158;2022-08-18T08:39:20;99968.62;;;31.68;46.00
55801;BME280;41730;51.960;20.158;2022-08-18T08:41:58;99965.58;;;31.61;45.25
55801;BME280;41730;51.960;20.158;2022-08-18T08:44:55;99962.16;;;31.53;45.70
55801;BME280;41730;51.960;20.158;2022-08-18T08:47:35;99958.41;;;31.60;45.18
55801;BME280;41730;51.960;20.158;2022-08-18T08:50:13;99959.16;;;31.72;45.00
55801;BME280;41730;51.960;20.158;2022-08-18T08:52:49;99963.39;;;31.77;45.06
55801;BME280;41730;51.960;20.158;2022-08-18T08:55:28;99957.80;;;31.81;44.38
55801;BME280;41730;51.960;20.158;2022-08-18T08:58:18;99950.08;;;31.74;44.22
55801;BME280;41730;51.960;20.158;2022-08-18T09:00:54;99953.30;;;31.66;44.48
55801;BME280;41730;51.960;20.158;2022-08-18T09:03:33;99952.70;;;31.70;44.34
55801;BME280;41730;51.960;20.158;2022-08-18T09:06:22;99957.41;;;31.82;44.45
55801;BME280;41730;51.960;20.158;2022-08-18T09:09:26;99958.65;;;32.03;43.84
55801;BME280;41730;51.960;20.158;2022-08-18T09:12:16;99954.04;;;32.02;43.67
55801;BME280;41730;51.960;20.158;2022-08-18T09:15:05;99955.02;;;31.80;44.11
55801;BME280;41730;51.960;20.158;2022-08-18T09:17:58;99955.30;;;31.68;44.38
55801;BME280;41730;51.960;20.158;2022-08-18T09:20:49;99952.84;;;31.75;44.02
55801;BME280;41730;51.960;20.158;2022-08-18T09:23:25;99950.90;;;31.70;44.28
55801;BME280;41730;51.960;20.158;2022-08-18T09:26:20;99948.08;;;31.64;44.30
55801;BME280;41730;51.960;20.158;2022-08-18T09:28:57;99944.98;;;31.72;44.13
55801;BME280;41730;51.960;20.158;2022-08-18T09:31:29;99951.17;;;31.73;44.12
55801;BME280;41730;51.960;20.158;2022-08-18T09:34:24;99951.77;;;31.69;44.22
55801;BME280;41730;51.960;20.158;2022-08-18T09:37:13;99948.46;;;31.49;44.56
55801;BME280;41730;51.960;20.158;2022-08-18T09:39:56;99945.53;;;31.40;44.59
55801;BME280;41730;51.960;20.158;2022-08-18T09:43:13;99946.99;;;31.55;44.76
55801;BME280;41730;51.960;20.158;2022-08-18T09:45:59;99947.42;;;31.51;44.66
55801;BME280;41730;51.960;20.158;2022-08-18T09:48:35;99944.17;;;31.46;44.38
55801;BME280;41730;51.960;20.158;2022-08-18T09:51:36;99947.66;;;31.30;44.14
55801;BME280;41730;51.960;20.158;2022-08-18T09:54:18;99949.08;;;31.32;44.13
55801;BME280;41730;51.960;20.158;2022-08-18T09:57:17;99946.00;;;31.40;44.07
55801;BME280;41730;51.960;20.158;2022-08-18T10:03:12;99950.03;;;31.70;43.54
55801;BME280;41730;51.960;20.158;2022-08-18T10:06:16;99949.42;;;31.79;42.76
55801;BME280;41730;51.960;20.158;2022-08-18T10:09:04;99945.08;;;31.71;41.96
55801;BME280;41730;51.960;20.158;2022-08-18T10:12:17;99947.54;;;31.59;42.70
55801;BME280;41730;51.960;20.158;2022-08-18T10:15:16;99947.31;;;31.72;42.71
55801;BME280;41730;51.960;20.158;2022-08-18T10:18:22;99949.48;;;31.79;42.69
55801;BME280;41730;51.960;20.158;2022-08-18T10:21:08;99945.23;;;31.73;42.78
55801;BME280;41730;51.960;20.158;2022-08-18T10:23:58;99943.13;;;31.60;43.24
55801;BME280;41730;51.960;20.158;2022-08-18T10:27:07;99946.18;;;31.65;43.51
55801;BME280;41730;51.960;20.158;2022-08-18T10:29:54;99943.34;;;31.66;43.35
55801;BME280;41730;51.960;20.158;2022-08-18T10:32:40;99949.01;;;31.65;43.21
55801;BME280;41730;51.960;20.158;2022-08-18T10:35:56;99951.77;;;31.45;43.30
55801;BME280;41730;51.960;20.158;2022-08-18T10:38:42;99948.42;;;31.32;43.46
55801;BME280;41730;51.960;20.158;2022-08-18T10:41:25;99946.64;;;31.30;43.64
55801;BME280;41730;51.960;20.158;2022-08-18T10:44:00;99940.74;;;31.47;43.21
55801;BME280;41730;51.960;20.158;2022-08-18T10:46:52;99942.35;;;31.37;43.25
55801;BME280;41730;51.960;20.158;2022-08-18T10:49:27;99947.65;;;31.13;43.74
55801;BME280;41730;51.960;20.158;2022-08-18T10:52:25;99944.70;;;31.06;43.77
55801;BME280;41730;51.960;20.158;2022-08-18T10:55:30;99945.98;;;30.93;43.97
55801;BME280;41730;51.960;20.158;2022-08-18T10:58:36;99946.27;;;31.05;43.84
55801;BME280;41730;51.960;20.158;2022-08-18T11:01:19;99943.89;;;31.05;43.83
55801;BME280;41730;51.960;20.158;2022-08-18T11:04:08;99941.45;;;31.08;43.69
55801;BME280;41730;51.960;20.158;2022-08-18T11:07:10;99940.05;;;31.09;43.88
55801;BME280;41730;51.960;20.158;2022-08-18T11:09:48;99932.98;;;31.20;43.55
55801;BME280;41730;51.960;20.158;2022-08-18T11:12:54;99927.27;;;31.07;43.89
55801;BME280;41730;51.960;20.158;2022-08-18T11:16:00;99926.08;;;31.08;43.91
55801;BME280;41730;51.960;20.158;2022-08-18T11:18:41;99919.98;;;31.04;44.09
55801;BME280;41730;51.960;20.158;2022-08-18T11:21:39;99918.03;;;31.03;44.12
55801;BME280;41730;51.960;20.158;2022-08-18T11:24:16;99919.49;;;31.05;44.05
55801;BME280;41730;51.960;20.158;2022-08-18T11:26:52;99917.88;;;31.10;44.27
55801;BME280;41730;51.960;20.158;2022-08-18T11:29:29;99916.80;;;31.15;44.13
55801;BME280;41730;51.960;20.158;2022-08-18T11:32:06;99914.57;;;31.12;43.87
55801;BME280;41730;51.960;20.158;2022-08-18T11:34:47;99912.70;;;31.01;44.03
55801;BME280;41730;51.960;20.158;2022-08-18T11:37:46;99913.54;;;31.18;43.94
55801;BME280;41730;51.960;20.158;2022-08-18T11:40:31;99910.30;;;31.29;43.82
55801;BME280;41730;51.960;20.158;2022-08-18T11:43:27;99909.95;;;31.34;43.24
55801;BME280;41730;51.960;20.158;2022-08-18T11:46:28;99910.88;;;31.33;43.14
55801;BME280;41730;51.960;20.158;2022-08-18T11:49:11;99912.13;;;31.37;42.86
55801;BME280;41730;51.960;20.158;2022-08-18T11:51:58;99904.10;;;31.38;43.13
55801;BME280;41730;51.960;20.158;2022-08-18T11:54:38;99905.58;;;31.42;42.90
55801;BME280;41730;51.960;20.158;2022-08-18T11:57:40;99901.56;;;31.44;42.73
55801;BME280;41730;51.960;20.158;2022-08-18T12:00:41;99906.91;;;31.36;43.41
55801;BME280;41730;51.960;20.158;2022-08-18T12:03:29;99904.86;;;31.33;43.26
55801;BME280;41730;51.960;20.158;2022-08-18T12:06:11;99903.02;;;31.27;43.43
55801;BME280;41730;51.960;20.158;2022-08-18T12:08:54;99898.08;;;31.39;43.24
55801;BME280;41730;51.960;20.158;2022-08-18T12:11:30;99897.37;;;31.47;43.26
55801;BME280;41730;51.960;20.158;2022-08-18T12:14:06;99894.66;;;31.47;42.83
55801;BME280;41730;51.960;20.158;2022-08-18T12:16:58;99889.59;;;31.50;42.85
55801;BME280;41730;51.960;20.158;2022-08-18T12:19:30;99892.20;;;31.45;43.05
55801;BME280;41730;51.960;20.158;2022-08-18T12:22:24;99884.85;;;31.35;43.38
55801;BME280;41730;51.960;20.158;2022-08-18T12:24:57;99882.57;;;31.33;43.27
55801;BME280;41730;51.960;20.158;2022-08-18T12:27:30;99876.70;;;31.35;43.30
55801;BME280;41730;51.960;20.158;2022-08-18T12:30:03;99873.61;;;31.24;43.36
55801;BME280;41730;51.960;20.158;2022-08-18T12:32:45;99874.20;;;31.25;43.63
55801;BME280;41730;51.960;20.158;2022-08-18T12:35:34;99871.71;;;31.15;43.67
55801;BME280;41730;51.960;20.158;2022-08-18T12:38:06;99872.36;;;31.07;44.01
55801;BME280;41730;51.960;20.158;2022-08-18T12:40:43;99873.23;;;30.90;44.31
55801;BME280;41730;51.960;20.158;2022-08-18T12:43:14;99867.23;;;30.94;44.39
55801;BME280;41730;51.960;20.158;2022-08-18T12:45:46;99865.30;;;31.15;44.18
55801;BME280;41730;51.960;20.158;2022-08-18T12:48:19;99861.98;;;31.11;43.96
55801;BME280;41730;51.960;20.158;2022-08-18T12:50:53;99858.77;;;30.94;44.09
55801;BME280;41730;51.960;20.158;2022-08-18T12:53:28;99855.63;;;30.80;44.57
55801;BME280;41730;51.960;20.158;2022-08-18T12:56:23;99852.59;;;30.78;44.57
55801;BME280;41730;51.960;20.158;2022-08-18T12:58:56;99853.68;;;31.07;43.96
55801;BME280;41730;51.960;20.158;2022-08-18T13:01:29;99848.09;;;31.18;43.38
55801;BME280;41730;51.960;20.158;2022-08-18T13:04:02;99847.05;;;31.16;43.49
55801;BME280;41730;51.960;20.158;2022-08-18T13:06:51;99849.16;;;31.18;43.60
55801;BME280;41730;51.960;20.158;2022-08-18T13:09:32;99845.53;;;31.17;43.82
55801;BME280;41730;51.960;20.158;2022-08-18T13:12:23;99840.69;;;31.21;43.42
55801;BME280;41730;51.960;20.158;2022-08-18T13:14:57;99832.98;;;31.06;43.39
55801;BME280;41730;51.960;20.158;2022-08-18T13:17:29;99830.63;;;30.84;44.02
55801;BME280;41730;51.960;20.158;2022-08-18T13:20:06;99825.80;;;30.86;44.11
55801;BME280;41730;51.960;20.158;2022-08-18T13:22:39;99822.60;;;31.06;43.84
55801;BME280;41730;51.960;20.158;2022-08-18T13:25:16;99824.55;;;31.24;43.43
55801;BME280;41730;51.960;20.158;2022-08-18T13:28:02;99819.17;;;31.11;43.33
55801;BME280;41730;51.960;20.158;2022-08-18T13:30:34;99817.01;;;31.16;43.29
55801;BME280;41730;51.960;20.158;2022-08-18T13:33:07;99817.39;;;31.00;43.43
55801;BME280;41730;51.960;20.158;2022-08-18T13:35:59;99816.91;;;30.95;43.46
55801;BME280;41730;51.960;20.158;2022-08-18T13:38:31;99816.96;;;30.96;43.57
55801;BME280;41730;51.960;20.158;2022-08-18T13:41:05;99816.52;;;30.88;43.88
55801;BME280;41730;51.960;20.158;2022-08-18T13:43:44;99816.52;;;30.98;43.55
55801;BME280;41730;51.960;20.158;2022-08-18T13:46:18;99818.05;;;31.08;43.24
55801;BME280;41730;51.960;20.158;2022-08-18T13:48:59;99821.45;;;31.12;43.49
55801;BME280;41730;51.960;20.158;2022-08-18T13:51:32;99820.52;;;31.16;43.51
55801;BME280;41730;51.960;20.158;2022-08-18T13:54:06;99816.83;;;31.29;43.12
55801;BME280;41730;51.960;20.158;2022-08-18T13:56:58;99819.77;;;31.26;43.48
55801;BME280;41730;51.960;20.158;2022-08-18T13:59:32;99827.14;;;31.37;43.15